sensor_id;sensor_type;location;lat;lon;timestamp;pressure;altitude;pressure_sealevel;temperature;humidity
3590;BME280;1809;48.470;9.226;2023-05-08T00:02:12;158417.28;;;14.51;100.00
3590;BME280;1809;48.470;9.226;2023-05-08T00:04:37;158404.22;;;14.46;100.00
3590;BME280;1809;48.470;9.226;2023-05-08T00:07:03;158400.31;;;14.44;100.00
3590;BME280;1809;48.470;9.226;2023-05-08T00:09:28;158399.00;;;14.44;100.00
3590;BME280;1809;48.470;9.226;2023-05-08T00:11:53;158412.06;;;14.49;100.00
3590;BME280;1809;48.470;9.226;2023-05-08T00:14:18;158412.06;;;14.49;100.00
3590;BME280;1809;48.470;9.226;2023-05-08T00:16:44;158380.63;;;14.37;100.00
3590;BME280;1809;48.470;9.226;2023-05-08T00:19:09;158387.16;;;14.39;100.00
3590;BME280;1809;48.470;9.226;2023-05-08T00:21:34;158391.13;;;14.41;100.00
3590;BME280;1809;48.470;9.226;2023-05-08T00:24:00;158401.56;;;14.45;100.00
3590;BME280;1809;48.470;9.226;2023-05-08T00:26:25;158406.84;;;14.47;100.00
3590;BME280;1809;48.470;9.226;2023-05-08T00:28:50;158385.84;;;14.39;100.00
3590;BME280;1809;48.470;9.226;2023-05-08T00:31:16;158395.03;;;14.42;100.00
3590;BME280;1809;48.470;9.226;2023-05-08T00:33:41;158388.50;;;14.40;100.00
3590;BME280;1809;48.470;9.226;2023-05-08T00:36:06;158378.00;;;14.36;100.00
3590;BME280;1809;48.470;9.226;2023-05-08T00:38:33;158371.44;;;14.33;100.00
3590;BME280;1809;48.470;9.226;2023-05-08T00:40:59;158364.84;;;14.31;100.00
3590;BME280;1809;48.470;9.226;2023-05-08T00:43:25;158363.53;;;14.30;100.00
3590;BME280;1809;48.470;9.226;2023-05-08T00:45:54;158366.16;;;14.31;100.00
3590;BME280;1809;48.470;9.226;2023-05-08T00:48:21;158338.63;;;14.21;100.00
3590;BME280;1809;48.470;9.226;2023-05-08T00:50:49;158339.94;;;14.21;100.00
3590;BME280;1809;48.470;9.226;2023-05-08T00:53:15;158338.63;;;14.21;100.00
3590;BME280;1809;48.470;9.226;2023-05-08T00:55:42;158339.94;;;14.21;100.00
3590;BME280;1809;48.470;9.226;2023-05-08T00:58:08;158337.31;;;14.20;100.00
3590;BME280;1809;48.470;9.226;2023-05-08T01:00:33;158328.13;;;14.17;100.00
3590;BME280;1809;48.470;9.226;2023-05-08T01:02:59;158330.78;;;14.18;100.00
3590;BME280;1809;48.470;9.226;2023-05-08T01:05:26;158322.91;;;14.15;100.00
3590;BME280;1809;48.470;9.226;2023-05-08T01:07:51;158325.56;;;14.16;100.00
3590;BME280;1809;48.470;9.226;2023-05-08T01:10:17;158325.56;;;14.16;100.00
3590;BME280;1809;48.470;9.226;2023-05-08T01:13:10;158336.00;;;14.20;100.00
3590;BME280;1809;48.470;9.226;2023-05-08T01:15:46;158349.13;;;14.25;100.00
3590;BME280;1809;48.470;9.226;2023-05-08T01:18:40;158379.31;;;14.36;100.00
3590;BME280;1809;48.470;9.226;2023-05-08T01:21:35;158371.44;;;14.33;100.00
3590;BME280;1809;48.470;9.226;2023-05-08T01:27:13;158371.44;;;14.33;100.00
3590;BME280;1809;48.470;9.226;2023-05-08T01:30:11;158368.75;;;14.32;100.00
3590;BME280;1809;48.470;9.226;2023-05-08T01:32:45;158366.16;;;14.31;100.00
3590;BME280;1809;48.470;9.226;2023-05-08T01:35:29;158375.41;;;14.35;100.00
3590;BME280;1809;48.470;9.226;2023-05-08T01:38:06;158370.13;;;14.33;100.00
3590;BME280;1809;48.470;9.226;2023-05-08T01:40:45;158371.44;;;14.33;100.00
3590;BME280;1809;48.470;9.226;2023-05-08T01:46:20;158375.41;;;14.35;100.00
3590;BME280;1809;48.470;9.226;2023-05-08T01:49:07;158372.75;;;14.34;100.00
3590;BME280;1809;48.470;9.226;2023-05-08T01:51:40;158372.75;;;14.34;100.00
3590;BME280;1809;48.470;9.226;2023-05-08T01:54:11;158375.41;;;14.35;100.00
3590;BME280;1809;48.470;9.226;2023-05-08T01:56:41;158375.41;;;14.35;100.00
3590;BME280;1809;48.470;9.226;2023-05-08T01:59:09;158378.00;;;14.36;100.00
3590;BME280;1809;48.470;9.226;2023-05-08T02:01:38;158364.84;;;14.31;100.00
3590;BME280;1809;48.470;9.226;2023-05-08T02:04:05;158371.44;;;14.33;100.00
3590;BME280;1809;48.470;9.226;2023-05-08T02:06:31;158376.66;;;14.35;100.00
3590;BME280;1809;48.470;9.226;2023-05-08T02:08:58;158375.41;;;14.35;100.00
3590;BME280;1809;48.470;9.226;2023-05-08T02:11:24;158380.63;;;14.37;100.00
3590;BME280;1809;48.470;9.226;2023-05-08T02:13:50;158378.00;;;14.36;100.00
3590;BME280;1809;48.470;9.226;2023-05-08T02:16:17;158375.41;;;14.35;100.00
3590;BME280;1809;48.470;9.226;2023-05-08T02:18:47;158375.41;;;14.35;100.00
3590;BME280;1809;48.470;9.226;2023-05-08T02:21:16;158391.13;;;14.41;100.00
3590;BME280;1809;48.470;9.226;2023-05-08T02:23:42;158388.50;;;14.40;100.00
3590;BME280;1809;48.470;9.226;2023-05-08T02:26:10;158399.00;;;14.44;100.00
3590;BME280;1809;48.470;9.226;2023-05-08T02:28:37;158370.13;;;14.33;100.00
3590;BME280;1809;48.470;9.226;2023-05-08T02:31:04;158374.09;;;14.34;100.00
3590;BME280;1809;48.470;9.226;2023-05-08T02:33:30;158378.00;;;14.36;100.00
3590;BME280;1809;48.470;9.226;2023-05-08T02:35:56;158385.84;;;14.39;100.00
3590;BME280;1809;48.470;9.226;2023-05-08T02:38:22;158397.66;;;14.43;100.00
3590;BME280;1809;48.470;9.226;2023-05-08T02:40:54;158385.84;;;14.39;100.00
3590;BME280;1809;48.470;9.226;2023-05-08T02:43:21;158388.50;;;14.40;100.00
3590;BME280;1809;48.470;9.226;2023-05-08T02:46:00;158397.66;;;14.43;100.00
3590;BME280;1809;48.470;9.226;2023-05-08T02:48:33;158391.13;;;14.41;100.00
3590;BME280;1809;48.470;9.226;2023-05-08T02:51:14;158378.00;;;14.36;100.00
3590;BME280;1809;48.470;9.226;2023-05-08T02:53:46;158372.75;;;14.34;100.00
3590;BME280;1809;48.470;9.226;2023-05-08T02:56:24;158362.22;;;14.30;100.00
3590;BME280;1809;48.470;9.226;2023-05-08T02:59:03;158367.50;;;14.32;100.00
3590;BME280;1809;48.470;9.226;2023-05-08T03:01:46;158363.53;;;14.30;100.00
3590;BME280;1809;48.470;9.226;2023-05-08T03:04:23;158379.31;;;14.36;100.00
3590;BME280;1809;48.470;9.226;2023-05-08T03:06:51;158375.41;;;14.35;100.00
3590;BME280;1809;48.470;9.226;2023-05-08T03:09:19;158381.94;;;14.37;100.00
3590;BME280;1809;48.470;9.226;2023-05-08T03:11:48;158383.25;;;14.38;100.00
3590;BME280;1809;48.470;9.226;2023-05-08T03:14:17;158388.50;;;14.40;100.00
3590;BME280;1809;48.470;9.226;2023-05-08T03:16:44;158399.00;;;14.44;100.00
3590;BME280;1809;48.470;9.226;2023-05-08T03:19:20;158401.56;;;14.45;100.00
3590;BME280;1809;48.470;9.226;2023-05-08T03:21:50;158406.84;;;14.47;100.00
3590;BME280;1809;48.470;9.226;2023-05-08T03:24:17;158404.22;;;14.46;100.00
3590;BME280;1809;48.470;9.226;2023-05-08T03:26:44;158404.22;;;14.46;100.00
3590;BME280;1809;48.470;9.226;2023-05-08T03:29:12;158427.78;;;14.55;100.00
3590;BME280;1809;48.470;9.226;2023-05-08T03:31:39;158419.94;;;14.52;100.00
3590;BME280;1809;48.470;9.226;2023-05-08T03:34:07;158412.06;;;14.49;100.00
3590;BME280;1809;48.470;9.226;2023-05-08T03:36:34;158410.75;;;14.48;100.00
3590;BME280;1809;48.470;9.226;2023-05-08T03:38:59;158412.06;;;14.49;100.00
3590;BME280;1809;48.470;9.226;2023-05-08T03:41:25;158425.16;;;14.54;100.00
3590;BME280;1809;48.470;9.226;2023-05-08T03:43:51;158417.28;;;14.51;100.00
3590;BME280;1809;48.470;9.226;2023-05-08T03:46:18;158419.94;;;14.52;100.00
3590;BME280;1809;48.470;9.226;2023-05-08T03:48:44;158419.94;;;14.52;100.00
3590;BME280;1809;48.470;9.226;2023-05-08T03:51:11;158422.56;;;14.53;100.00
3590;BME280;1809;48.470;9.226;2023-05-08T03:53:36;158434.34;;;14.58;100.00
3590;BME280;1809;48.470;9.226;2023-05-08T03:56:02;158440.94;;;14.60;100.00
3590;BME280;1809;48.470;9.226;2023-05-08T03:58:47;158430.44;;;14.56;100.00
3590;BME280;1809;48.470;9.226;2023-05-08T04:01:19;158454.03;;;14.65;100.00
3590;BME280;1809;48.470;9.226;2023-05-08T04:04:15;158451.38;;;14.64;100.00
3590;BME280;1809;48.470;9.226;2023-05-08T04:06:59;158448.78;;;14.63;100.00
3590;BME280;1809;48.470;9.226;2023-05-08T04:12:38;158457.94;;;14.67;100.00
3590;BME280;1809;48.470;9.226;2023-05-08T04:15:07;158467.09;;;14.70;100.00
3590;BME280;1809;48.470;9.226;2023-05-08T04:17:52;158467.09;;;14.70;100.00
3590;BME280;1809;48.470;9.226;2023-05-08T04:20:19;158472.38;;;14.72;100.00
3590;BME280;1809;48.470;9.226;2023-05-08T04:22:48;158485.47;;;14.77;100.00
3590;BME280;1809;48.470;9.226;2023-05-08T04:25:15;158486.78;;;14.78;100.00
3590;BME280;1809;48.470;9.226;2023-05-08T04:27:42;158489.44;;;14.79;100.00
3590;BME280;1809;48.470;9.226;2023-05-08T04:30:09;158472.38;;;14.72;100.00
3590;BME280;1809;48.470;9.226;2023-05-08T04:32:35;158463.19;;;14.69;100.00
3590;BME280;1809;48.470;9.226;2023-05-08T04:35:02;158463.19;;;14.69;100.00
3590;BME280;1809;48.470;9.226;2023-05-08T04:37:28;158486.78;;;14.78;100.00
3590;BME280;1809;48.470;9.226;2023-05-08T04:39:56;158478.94;;;14.75;100.00
3590;BME280;1809;48.470;9.226;2023-05-08T04:42:21;158471.06;;;14.72;100.00
3590;BME280;1809;48.470;9.226;2023-05-08T04:44:48;158476.28;;;14.74;100.00
3590;BME280;1809;48.470;9.226;2023-05-08T04:47:14;158481.50;;;14.76;100.00
3590;BME280;1809;48.470;9.226;2023-05-08T04:49:39;158484.16;;;14.77;100.00
3590;BME280;1809;48.470;9.226;2023-05-08T04:52:04;158486.78;;;14.78;100.00
3590;BME280;1809;48.470;9.226;2023-05-08T04:54:31;158485.47;;;14.77;100.00
3590;BME280;1809;48.470;9.226;2023-05-08T04:56:56;158476.28;;;14.74;100.00
3590;BME280;1809;48.470;9.226;2023-05-08T04:59:22;158474.97;;;14.73;100.00
3590;BME280;1809;48.470;9.226;2023-05-08T05:01:49;158482.84;;;14.76;100.00
3590;BME280;1809;48.470;9.226;2023-05-08T05:04:14;158495.97;;;14.81;100.00
3590;BME280;1809;48.470;9.226;2023-05-08T05:06:39;158506.41;;;14.85;100.00
3590;BME280;1809;48.470;9.226;2023-05-08T05:09:05;158498.56;;;14.82;100.00
3590;BME280;1809;48.470;9.226;2023-05-08T05:11:30;158513.03;;;14.88;100.00
3590;BME280;1809;48.470;9.226;2023-05-08T05:13:56;158494.66;;;14.81;100.00
3590;BME280;1809;48.470;9.226;2023-05-08T05:16:21;158495.97;;;14.81;100.00
3590;BME280;1809;48.470;9.226;2023-05-08T05:18:46;158526.09;;;14.93;100.00
3590;BME280;1809;48.470;9.226;2023-05-08T05:21:12;158506.41;;;14.85;100.00
3590;BME280;1809;48.470;9.226;2023-05-08T05:23:37;158505.16;;;14.85;100.00
3590;BME280;1809;48.470;9.226;2023-05-08T05:26:03;158482.84;;;14.76;100.00
3590;BME280;1809;48.470;9.226;2023-05-08T05:28:28;158485.47;;;14.77;100.00
3590;BME280;1809;48.470;9.226;2023-05-08T05:30:54;158477.59;;;14.74;100.00
3590;BME280;1809;48.470;9.226;2023-05-08T05:33:19;158463.19;;;14.69;100.00
3590;BME280;1809;48.470;9.226;2023-05-08T05:35:44;158454.03;;;14.65;100.00
3590;BME280;1809;48.470;9.226;2023-05-08T05:38:10;158440.94;;;14.60;100.00
3590;BME280;1809;48.470;9.226;2023-05-08T05:40:35;158426.47;;;14.54;100.00
3590;BME280;1809;48.470;9.226;2023-05-08T05:43:01;158410.75;;;14.48;100.00
3590;BME280;1809;48.470;9.226;2023-05-08T05:45:26;158419.94;;;14.52;100.00
3590;BME280;1809;48.470;9.226;2023-05-08T05:47:51;158425.16;;;14.54;100.00
3590;BME280;1809;48.470;9.226;2023-05-08T05:50:18;158422.56;;;14.53;100.00
3590;BME280;1809;48.470;9.226;2023-05-08T05:52:44;158410.75;;;14.48;100.00
3590;BME280;1809;48.470;9.226;2023-05-08T05:55:10;158396.34;;;14.43;100.00
3590;BME280;1809;48.470;9.226;2023-05-08T05:57:36;158397.66;;;14.43;100.00
3590;BME280;1809;48.470;9.226;2023-05-08T06:00:03;158400.31;;;14.44;100.00
3590;BME280;1809;48.470;9.226;2023-05-08T06:02:28;158409.44;;;14.48;100.00
3590;BME280;1809;48.470;9.226;2023-05-08T06:04:54;158427.78;;;14.55;100.00
3590;BME280;1809;48.470;9.226;2023-05-08T06:07:19;158419.94;;;14.52;100.00
3590;BME280;1809;48.470;9.226;2023-05-08T06:09:47;158422.56;;;14.53;100.00
3590;BME280;1809;48.470;9.226;2023-05-08T06:12:14;158429.13;;;14.56;100.00
3590;BME280;1809;48.470;9.226;2023-05-08T06:14:40;158431.75;;;14.57;100.00
3590;BME280;1809;48.470;9.226;2023-05-08T06:17:05;158419.94;;;14.52;100.00
3590;BME280;1809;48.470;9.226;2023-05-08T06:19:30;158426.47;;;14.54;100.00
3590;BME280;1809;48.470;9.226;2023-05-08T06:21:56;158412.06;;;14.49;100.00
3590;BME280;1809;48.470;9.226;2023-05-08T06:24:21;158433.03;;;14.57;100.00
3590;BME280;1809;48.470;9.226;2023-05-08T06:26:46;158430.44;;;14.56;100.00
3590;BME280;1809;48.470;9.226;2023-05-08T06:29:12;158425.16;;;14.54;100.00
3590;BME280;1809;48.470;9.226;2023-05-08T06:31:37;158425.16;;;14.54;100.00
3590;BME280;1809;48.470;9.226;2023-05-08T06:34:02;158419.94;;;14.52;100.00
3590;BME280;1809;48.470;9.226;2023-05-08T06:36:28;158425.16;;;14.54;100.00
3590;BME280;1809;48.470;9.226;2023-05-08T06:38:53;158444.84;;;14.62;100.00
3590;BME280;1809;48.470;9.226;2023-05-08T06:41:18;158435.66;;;14.58;100.00
3590;BME280;1809;48.470;9.226;2023-05-08T06:43:44;158448.78;;;14.63;100.00
3590;BME280;1809;48.470;9.226;2023-05-08T06:46:09;158430.44;;;14.56;100.00
3590;BME280;1809;48.470;9.226;2023-05-08T06:48:34;158456.66;;;14.66;100.00
3590;BME280;1809;48.470;9.226;2023-05-08T06:51:00;158448.78;;;14.63;100.00
3590;BME280;1809;48.470;9.226;2023-05-08T06:53:26;158465.78;;;14.70;100.00
3590;BME280;1809;48.470;9.226;2023-05-08T06:55:51;158454.03;;;14.65;100.00
3590;BME280;1809;48.470;9.226;2023-05-08T06:58:17;158456.66;;;14.66;100.00
3590;BME280;1809;48.470;9.226;2023-05-08T07:00:42;158459.25;;;14.67;100.00
3590;BME280;1809;48.470;9.226;2023-05-08T07:03:07;158485.47;;;14.77;100.00
3590;BME280;1809;48.470;9.226;2023-05-08T07:05:33;158480.25;;;14.75;100.00
3590;BME280;1809;48.470;9.226;2023-05-08T07:07:58;158469.75;;;14.71;100.00
3590;BME280;1809;48.470;9.226;2023-05-08T07:10:23;158451.38;;;14.64;100.00
3590;BME280;1809;48.470;9.226;2023-05-08T07:12:49;158422.56;;;14.53;100.00
3590;BME280;1809;48.470;9.226;2023-05-08T07:15:14;158421.25;;;14.52;100.00
3590;BME280;1809;48.470;9.226;2023-05-08T07:17:40;158416.03;;;14.50;100.00
3590;BME280;1809;48.470;9.226;2023-05-08T07:20:06;158401.56;;;14.45;100.00
3590;BME280;1809;48.470;9.226;2023-05-08T07:22:32;158393.72;;;14.42;100.00
3590;BME280;1809;48.470;9.226;2023-05-08T07:24:57;158383.25;;;14.38;100.00
3590;BME280;1809;48.470;9.226;2023-05-08T07:27:23;158378.00;;;14.36;100.00
3590;BME280;1809;48.470;9.226;2023-05-08T07:29:48;158375.41;;;14.35;100.00
3590;BME280;1809;48.470;9.226;2023-05-08T07:32:14;158367.50;;;14.32;100.00
3590;BME280;1809;48.470;9.226;2023-05-08T07:34:39;158372.75;;;14.34;100.00
3590;BME280;1809;48.470;9.226;2023-05-08T07:37:05;158367.50;;;14.32;100.00
3590;BME280;1809;48.470;9.226;2023-05-08T07:39:31;158359.63;;;14.29;100.00
3590;BME280;1809;48.470;9.226;2023-05-08T07:41:56;158370.13;;;14.33;100.00
3590;BME280;1809;48.470;9.226;2023-05-08T07:44:21;158374.09;;;14.34;100.00
3590;BME280;1809;48.470;9.226;2023-05-08T07:46:47;158371.44;;;14.33;100.00
3590;BME280;1809;48.470;9.226;2023-05-08T07:49:12;158374.09;;;14.34;100.00
3590;BME280;1809;48.470;9.226;2023-05-08T07:51:37;158367.50;;;14.32;100.00
3590;BME280;1809;48.470;9.226;2023-05-08T07:54:03;158357.00;;;14.28;100.00
3590;BME280;1809;48.470;9.226;2023-05-08T07:56:28;158349.13;;;14.25;100.00
3590;BME280;1809;48.470;9.226;2023-05-08T07:58:54;158357.00;;;14.28;100.00
3590;BME280;1809;48.470;9.226;2023-05-08T08:01:19;158357.00;;;14.28;100.00
3590;BME280;1809;48.470;9.226;2023-05-08T08:03:45;158357.00;;;14.28;100.00
3590;BME280;1809;48.470;9.226;2023-05-08T08:06:10;158367.50;;;14.32;100.00
3590;BME280;1809;48.470;9.226;2023-05-08T08:08:36;158384.53;;;14.38;100.00
3590;BME280;1809;48.470;9.226;2023-05-08T08:11:01;158396.34;;;14.43;100.00
3590;BME280;1809;48.470;9.226;2023-05-08T08:13:27;158388.50;;;14.40;100.00
3590;BME280;1809;48.470;9.226;2023-05-08T08:15:52;158401.56;;;14.45;100.00
3590;BME280;1809;48.470;9.226;2023-05-08T08:18:17;158413.38;;;14.49;100.00
3590;BME280;1809;48.470;9.226;2023-05-08T08:20:43;158427.78;;;14.55;100.00
3590;BME280;1809;48.470;9.226;2023-05-08T08:23:08;158430.44;;;14.56;100.00
3590;BME280;1809;48.470;9.226;2023-05-08T08:25:33;158430.44;;;14.56;100.00
3590;BME280;1809;48.470;9.226;2023-05-08T08:27:59;158446.16;;;14.62;100.00
3590;BME280;1809;48.470;9.226;2023-05-08T08:30:24;158444.84;;;14.62;100.00
3590;BME280;1809;48.470;9.226;2023-05-08T08:32:50;158464.53;;;14.69;100.00
3590;BME280;1809;48.470;9.226;2023-05-08T08:35:15;158480.25;;;14.75;100.00
3590;BME280;1809;48.470;9.226;2023-05-08T08:37:41;158513.03;;;14.88;100.00
3590;BME280;1809;48.470;9.226;2023-05-08T08:40:06;158527.44;;;14.93;100.00
3590;BME280;1809;48.470;9.226;2023-05-08T08:42:32;158520.88;;;14.91;100.00
3590;BME280;1809;48.470;9.226;2023-05-08T08:44:58;158541.84;;;14.99;100.00
3590;BME280;1809;48.470;9.226;2023-05-08T08:47:27;158571.97;;;15.11;100.00
3590;BME280;1809;48.470;9.226;2023-05-08T08:49:54;158582.47;;;15.15;100.00
3590;BME280;1809;48.470;9.226;2023-05-08T08:55:15;158569.38;;;15.10;100.00
3590;BME280;1809;48.470;9.226;2023-05-08T08:58:15;158561.53;;;15.06;100.00
3590;BME280;1809;48.470;9.226;2023-05-08T09:00:41;158645.41;;;15.39;100.00
3590;BME280;1809;48.470;9.226;2023-05-08T09:03:07;158675.66;;;15.50;100.00
3590;BME280;1809;48.470;9.226;2023-05-08T09:05:32;158726.78;;;15.70;100.00
3590;BME280;1809;48.470;9.226;2023-05-08T09:07:58;158644.09;;;15.38;100.00
3590;BME280;1809;48.470;9.226;2023-05-08T09:10:24;158747.78;;;15.78;100.00
3590;BME280;1809;48.470;9.226;2023-05-08T09:12:49;158760.88;;;15.83;100.00
3590;BME280;1809;48.470;9.226;2023-05-08T09:15:15;158756.94;;;15.82;100.00
3590;BME280;1809;48.470;9.226;2023-05-08T09:17:41;158833.03;;;16.11;100.00
3590;BME280;1809;48.470;9.226;2023-05-08T09:20:07;158732.03;;;15.72;100.00
3590;BME280;1809;48.470;9.226;2023-05-08T09:22:35;158848.78;;;16.17;100.00
3590;BME280;1809;48.470;9.226;2023-05-08T09:25:00;158810.75;;;16.02;100.00
3590;BME280;1809;48.470;9.226;2023-05-08T09:27:28;158844.88;;;16.16;100.00
3590;BME280;1809;48.470;9.226;2023-05-08T09:30:10;158810.75;;;16.02;100.00
3590;BME280;1809;48.470;9.226;2023-05-08T09:32:37;158785.81;;;15.93;100.00
3590;BME280;1809;48.470;9.226;2023-05-08T09:35:04;158846.13;;;16.16;100.00
3590;BME280;1809;48.470;9.226;2023-05-08T09:37:31;158837.00;;;16.12;100.00
3590;BME280;1809;48.470;9.226;2023-05-08T09:40:20;158842.22;;;16.14;100.00
3590;BME280;1809;48.470;9.226;2023-05-08T09:42:47;158802.88;;;15.99;100.00
3590;BME280;1809;48.470;9.226;2023-05-08T09:45:32;158920.94;;;16.45;100.00
3590;BME280;1809;48.470;9.226;2023-05-08T09:47:59;158931.47;;;16.49;100.00
3590;BME280;1809;48.470;9.226;2023-05-08T09:50:25;159023.41;;;16.84;100.00
3590;BME280;1809;48.470;9.226;2023-05-08T09:52:51;159045.69;;;16.93;100.00
3590;BME280;1809;48.470;9.226;2023-05-08T09:55:17;159070.66;;;17.02;100.00
3590;BME280;1809;48.470;9.226;2023-05-08T09:57:59;159165.16;;;17.39;100.00
3590;BME280;1809;48.470;9.226;2023-05-08T10:00:26;159157.28;;;17.36;100.00
3590;BME280;1809;48.470;9.226;2023-05-08T10:02:59;159165.16;;;17.39;100.00
3590;BME280;1809;48.470;9.226;2023-05-08T10:05:32;159173.03;;;17.42;100.00
3590;BME280;1809;48.470;9.226;2023-05-08T10:08:17;159140.22;;;17.29;100.00
3590;BME280;1809;48.470;9.226;2023-05-08T10:10:42;159220.38;;;17.60;100.00
3590;BME280;1809;48.470;9.226;2023-05-08T10:13:07;159240.09;;;17.67;100.00
3590;BME280;1809;48.470;9.226;2023-05-08T10:15:34;159335.97;;;18.04;100.00
3590;BME280;1809;48.470;9.226;2023-05-08T10:18:03;159431.88;;;18.41;100.00
3590;BME280;1809;48.470;9.226;2023-05-08T10:20:30;159330.72;;;18.02;100.00
3590;BME280;1809;48.470;9.226;2023-05-08T10:22:57;159275.53;;;17.81;100.00
3590;BME280;1809;48.470;9.226;2023-05-08T10:25:23;159233.53;;;17.65;100.00
3590;BME280;1809;48.470;9.226;2023-05-08T10:30:24;159427.97;;;18.40;100.00
3590;BME280;1809;48.470;9.226;2023-05-08T10:32:51;159496.31;;;18.66;100.00
3590;BME280;1809;48.470;9.226;2023-05-08T10:35:20;159579.13;;;18.98;100.00
3590;BME280;1809;48.470;9.226;2023-05-08T10:37:47;159580.47;;;18.98;100.00
3590;BME280;1809;48.470;9.226;2023-05-08T10:40:14;159589.66;;;19.02;100.00
3590;BME280;1809;48.470;9.226;2023-05-08T10:42:46;159512.09;;;18.72;100.00
3590;BME280;1809;48.470;9.226;2023-05-08T10:45:11;159535.75;;;18.81;100.00
3590;BME280;1809;48.470;9.226;2023-05-08T10:47:50;159530.50;;;18.79;100.00
3590;BME280;1809;48.470;9.226;2023-05-08T10:50:49;156776.69;;;19.07;100.00
3590;BME280;1809;48.470;9.226;2023-05-08T10:53:24;159680.34;;;19.37;100.00
3590;BME280;1809;48.470;9.226;2023-05-08T10:55:53;159696.22;;;19.43;100.00
3590;BME280;1809;48.470;9.226;2023-05-08T11:03:27;159380.72;;;19.58;100.00
3590;BME280;1809;48.470;9.226;2023-05-08T11:05:55;159688.19;;;19.41;100.00
3590;BME280;1809;48.470;9.226;2023-05-08T11:08:25;159777.72;;;19.74;100.00
3590;BME280;1809;48.470;9.226;2023-05-08T11:16:01;159112.34;;;19.91;100.00
3590;BME280;1809;48.470;9.226;2023-05-08T11:18:27;145286.84;;;19.66;100.00
3590;BME280;1809;48.470;9.226;2023-05-08T11:21:14;149046.03;;;19.18;100.00
3590;BME280;1809;48.470;9.226;2023-05-08T11:23:55;157799.28;;;18.93;100.00
3590;BME280;1809;48.470;9.226;2023-05-08T11:26:20;159506.84;;;18.70;100.00
3590;BME280;1809;48.470;9.226;2023-05-08T11:31:18;159312.31;;;17.95;100.00
3590;BME280;1809;48.470;9.226;2023-05-08T11:33:44;159199.31;;;17.52;100.00
3590;BME280;1809;48.470;9.226;2023-05-08T11:36:17;159198.00;;;17.51;100.00
3590;BME280;1809;48.470;9.226;2023-05-08T11:39:09;159194.03;;;17.50;100.00
3590;BME280;1809;48.470;9.226;2023-05-08T11:41:37;159167.81;;;17.40;100.00
3590;BME280;1809;48.470;9.226;2023-05-08T11:46:54;159104.75;;;17.15;100.00
3590;BME280;1809;48.470;9.226;2023-05-08T11:49:22;159183.56;;;17.46;100.00
3590;BME280;1809;48.470;9.226;2023-05-08T11:51:57;159121.81;;;17.22;100.00
3590;BME280;1809;48.470;9.226;2023-05-08T11:54:23;159125.78;;;17.24;100.00
3590;BME280;1809;48.470;9.226;2023-05-08T11:56:50;159100.84;;;17.14;100.00
3590;BME280;1809;48.470;9.226;2023-05-08T11:59:17;159053.56;;;16.96;100.00
3590;BME280;1809;48.470;9.226;2023-05-08T12:01:43;159069.31;;;17.02;100.00
3590;BME280;1809;48.470;9.226;2023-05-08T12:04:10;159049.59;;;16.94;100.00
3590;BME280;1809;48.470;9.226;2023-05-08T12:06:39;159091.63;;;17.10;100.00
3590;BME280;1809;48.470;9.226;2023-05-08T12:09:15;159204.56;;;17.54;100.00
3590;BME280;1809;48.470;9.226;2023-05-08T12:11:42;159183.56;;;17.46;100.00
3590;BME280;1809;48.470;9.226;2023-05-08T12:14:10;159157.28;;;17.36;100.00
3590;BME280;1809;48.470;9.226;2023-05-08T12:16:36;159041.75;;;16.91;100.00
3590;BME280;1809;48.470;9.226;2023-05-08T12:19:03;158920.94;;;16.45;100.00
3590;BME280;1809;48.470;9.226;2023-05-08T12:21:28;158930.13;;;16.48;100.00
3590;BME280;1809;48.470;9.226;2023-05-08T12:23:54;158949.91;;;16.56;100.00
3590;BME280;1809;48.470;9.226;2023-05-08T12:26:20;159020.75;;;16.83;100.00
3590;BME280;1809;48.470;9.226;2023-05-08T12:28:45;159091.63;;;17.10;100.00
3590;BME280;1809;48.470;9.226;2023-05-08T12:31:12;159077.19;;;17.05;100.00
3590;BME280;1809;48.470;9.226;2023-05-08T12:33:38;159099.50;;;17.13;100.00
3590;BME280;1809;48.470;9.226;2023-05-08T12:36:03;159129.69;;;17.25;100.00
3590;BME280;1809;48.470;9.226;2023-05-08T12:38:30;159131.00;;;17.26;100.00
3590;BME280;1809;48.470;9.226;2023-05-08T12:40:55;159178.28;;;17.44;100.00
3590;BME280;1809;48.470;9.226;2023-05-08T12:43:30;159217.78;;;17.59;100.00
3590;BME280;1809;48.470;9.226;2023-05-08T12:45:55;159253.19;;;17.72;100.00
3590;BME280;1809;48.470;9.226;2023-05-08T12:48:21;159279.47;;;17.83;100.00
3590;BME280;1809;48.470;9.226;2023-05-08T12:50:46;159212.47;;;17.57;100.00
3590;BME280;1809;48.470;9.226;2023-05-08T12:53:15;159293.94;;;17.88;100.00
3590;BME280;1809;48.470;9.226;2023-05-08T12:55:55;159225.66;;;17.62;100.00
3590;BME280;1809;48.470;9.226;2023-05-08T12:58:26;159060.13;;;16.98;100.00
3590;BME280;1809;48.470;9.226;2023-05-08T13:00:52;159057.50;;;16.97;100.00
3590;BME280;1809;48.470;9.226;2023-05-08T13:03:26;158922.25;;;16.45;100.00
3590;BME280;1809;48.470;9.226;2023-05-08T13:05:53;158934.09;;;16.50;100.00
3590;BME280;1809;48.470;9.226;2023-05-08T13:08:19;158973.50;;;16.65;100.00
3590;BME280;1809;48.470;9.226;2023-05-08T13:10:52;159124.47;;;17.23;100.00
3590;BME280;1809;48.470;9.226;2023-05-08T13:13:22;159170.41;;;17.41;100.00
3590;BME280;1809;48.470;9.226;2023-05-08T13:15:49;159395.09;;;18.27;100.00
3590;BME280;1809;48.470;9.226;2023-05-08T13:18:15;159430.56;;;18.41;100.00
3590;BME280;1809;48.470;9.226;2023-05-08T13:20:41;159463.47;;;18.53;100.00
3590;BME280;1809;48.470;9.226;2023-05-08T13:23:08;159504.22;;;18.69;100.00
3590;BME280;1809;48.470;9.226;2023-05-08T13:25:35;159577.81;;;18.97;100.00
3590;BME280;1809;48.470;9.226;2023-05-08T13:28:01;158003.75;;;18.36;100.00
3590;BME280;1809;48.470;9.226;2023-05-08T13:30:26;159487.13;;;18.62;100.00
3590;BME280;1809;48.470;9.226;2023-05-08T13:32:52;158468.75;;;18.79;100.00
3590;BME280;1809;48.470;9.226;2023-05-08T13:35:19;155260.34;;;18.66;100.00
3590;BME280;1809;48.470;9.226;2023-05-08T13:37:44;151802.69;;;18.93;100.00